sensor_id;sensor_type;location;lat;lon;timestamp;temperature;humidity
59307;DHT22;47983;53.016;-2.260;2023-03-17T00:00:40;9.90;99.90
59307;DHT22;47983;53.016;-2.260;2023-03-17T00:03:25;9.90;99.90
59307;DHT22;47983;53.016;-2.260;2023-03-17T00:05:54;9.90;99.90
59307;DHT22;47983;53.016;-2.260;2023-03-17T00:08:28;9.90;99.90
59307;DHT22;47983;53.016;-2.260;2023-03-17T00:10:58;9.90;99.90
59307;DHT22;47983;53.016;-2.260;2023-03-17T00:13:27;9.80;99.90
59307;DHT22;47983;53.016;-2.260;2023-03-17T00:15:58;9.70;99.90
59307;DHT22;47983;53.016;-2.260;2023-03-17T00:18:27;9.60;99.90
59307;DHT22;47983;53.016;-2.260;2023-03-17T00:20:58;9.60;99.90
59307;DHT22;47983;53.016;-2.260;2023-03-17T00:23:27;9.60;99.90
59307;DHT22;47983;53.016;-2.260;2023-03-17T00:25:55;9.50;99.90
59307;DHT22;47983;53.016;-2.260;2023-03-17T00:28:25;9.50;99.90
59307;DHT22;47983;53.016;-2.260;2023-03-17T00:30:57;9.50;99.90
59307;DHT22;47983;53.016;-2.260;2023-03-17T00:33:28;9.50;99.90
59307;DHT22;47983;53.016;-2.260;2023-03-17T00:35:56;9.60;99.90
59307;DHT22;47983;53.016;-2.260;2023-03-17T00:38:25;9.50;99.90
59307;DHT22;47983;53.016;-2.260;2023-03-17T00:40:52;9.60;99.90
59307;DHT22;47983;53.016;-2.260;2023-03-17T00:43:21;9.60;99.90
59307;DHT22;47983;53.016;-2.260;2023-03-17T00:45:50;9.60;99.90
59307;DHT22;47983;53.016;-2.260;2023-03-17T00:48:21;9.60;99.90
59307;DHT22;47983;53.016;-2.260;2023-03-17T00:50:49;9.50;99.90
59307;DHT22;47983;53.016;-2.260;2023-03-17T00:53:19;9.40;99.90
59307;DHT22;47983;53.016;-2.260;2023-03-17T00:55:48;9.40;99.90
59307;DHT22;47983;53.016;-2.260;2023-03-17T00:58:27;9.40;99.90
59307;DHT22;47983;53.016;-2.260;2023-03-17T01:01:00;9.30;99.90
59307;DHT22;47983;53.016;-2.260;2023-03-17T01:03:28;9.30;99.90
59307;DHT22;47983;53.016;-2.260;2023-03-17T01:05:59;9.20;99.90
59307;DHT22;47983;53.016;-2.260;2023-03-17T01:08:29;9.10;99.90
59307;DHT22;47983;53.016;-2.260;2023-03-17T01:10:57;9.10;99.90
59307;DHT22;47983;53.016;-2.260;2023-03-17T01:13:25;9.00;99.90
59307;DHT22;47983;53.016;-2.260;2023-03-17T01:15:54;9.00;99.90
59307;DHT22;47983;53.016;-2.260;2023-03-17T01:18:23;9.00;99.90
59307;DHT22;47983;53.016;-2.260;2023-03-17T01:20:51;8.90;99.90
59307;DHT22;47983;53.016;-2.260;2023-03-17T01:23:19;8.90;99.90
59307;DHT22;47983;53.016;-2.260;2023-03-17T01:25:48;8.90;99.90
59307;DHT22;47983;53.016;-2.260;2023-03-17T01:28:18;8.80;99.90
59307;DHT22;47983;53.016;-2.260;2023-03-17T01:30:46;8.80;99.90
59307;DHT22;47983;53.016;-2.260;2023-03-17T01:33:17;8.90;99.90
59307;DHT22;47983;53.016;-2.260;2023-03-17T01:35:44;8.90;99.90
59307;DHT22;47983;53.016;-2.260;2023-03-17T01:38:12;8.90;99.90
59307;DHT22;47983;53.016;-2.260;2023-03-17T01:40:45;8.90;99.90
59307;DHT22;47983;53.016;-2.260;2023-03-17T01:43:22;8.90;99.90
59307;DHT22;47983;53.016;-2.260;2023-03-17T01:48:42;8.90;99.90
59307;DHT22;47983;53.016;-2.260;2023-03-17T01:51:16;8.90;99.90
59307;DHT22;47983;53.016;-2.260;2023-03-17T01:53:46;8.90;99.90
59307;DHT22;47983;53.016;-2.260;2023-03-17T01:56:16;9.00;99.90
59307;DHT22;47983;53.016;-2.260;2023-03-17T01:58:46;9.00;99.90
59307;DHT22;47983;53.016;-2.260;2023-03-17T02:01:15;9.00;99.90
59307;DHT22;47983;53.016;-2.260;2023-03-17T02:03:44;9.10;99.90
59307;DHT22;47983;53.016;-2.260;2023-03-17T02:06:12;9.10;99.90
59307;DHT22;47983;53.016;-2.260;2023-03-17T02:08:40;9.10;99.90
59307;DHT22;47983;53.016;-2.260;2023-03-17T02:11:08;9.20;99.90
59307;DHT22;47983;53.016;-2.260;2023-03-17T02:13:39;9.20;99.90
59307;DHT22;47983;53.016;-2.260;2023-03-17T02:16:13;9.20;99.90
59307;DHT22;47983;53.016;-2.260;2023-03-17T02:18:42;9.10;99.90
59307;DHT22;47983;53.016;-2.260;2023-03-17T02:21:32;9.10;99.90
59307;DHT22;47983;53.016;-2.260;2023-03-17T02:24:06;9.00;99.90
59307;DHT22;47983;53.016;-2.260;2023-03-17T02:26:35;9.00;99.90
59307;DHT22;47983;53.016;-2.260;2023-03-17T02:29:04;9.00;99.90
59307;DHT22;47983;53.016;-2.260;2023-03-17T02:31:32;8.90;99.90
59307;DHT22;47983;53.016;-2.260;2023-03-17T02:34:01;8.90;99.90
59307;DHT22;47983;53.016;-2.260;2023-03-17T02:36:29;8.80;99.90
59307;DHT22;47983;53.016;-2.260;2023-03-17T02:39:02;8.80;99.90
59307;DHT22;47983;53.016;-2.260;2023-03-17T02:41:30;8.80;99.90
59307;DHT22;47983;53.016;-2.260;2023-03-17T02:43:59;8.80;99.90
59307;DHT22;47983;53.016;-2.260;2023-03-17T02:46:29;8.70;99.90
59307;DHT22;47983;53.016;-2.260;2023-03-17T02:48:58;8.80;99.90
59307;DHT22;47983;53.016;-2.260;2023-03-17T02:51:28;8.70;99.90
59307;DHT22;47983;53.016;-2.260;2023-03-17T02:53:58;8.70;99.90
59307;DHT22;47983;53.016;-2.260;2023-03-17T02:56:28;8.70;99.90
59307;DHT22;47983;53.016;-2.260;2023-03-17T02:58:56;8.70;99.90
59307;DHT22;47983;53.016;-2.260;2023-03-17T03:01:24;8.70;99.90
59307;DHT22;47983;53.016;-2.260;2023-03-17T03:03:53;8.80;99.90
59307;DHT22;47983;53.016;-2.260;2023-03-17T03:06:21;8.80;99.90
59307;DHT22;47983;53.016;-2.260;2023-03-17T03:08:51;8.80;99.90
59307;DHT22;47983;53.016;-2.260;2023-03-17T03:11:18;8.90;99.90
59307;DHT22;47983;53.016;-2.260;2023-03-17T03:13:46;8.90;99.90
59307;DHT22;47983;53.016;-2.260;2023-03-17T03:16:14;8.90;99.90
59307;DHT22;47983;53.016;-2.260;2023-03-17T03:18:42;8.90;99.90
59307;DHT22;47983;53.016;-2.260;2023-03-17T03:21:10;8.90;99.90
59307;DHT22;47983;53.016;-2.260;2023-03-17T03:23:37;9.00;99.90
59307;DHT22;47983;53.016;-2.260;2023-03-17T03:26:05;9.00;99.90
59307;DHT22;47983;53.016;-2.260;2023-03-17T03:28:44;9.00;99.90
59307;DHT22;47983;53.016;-2.260;2023-03-17T03:31:12;8.90;99.90
59307;DHT22;47983;53.016;-2.260;2023-03-17T03:33:41;8.90;99.90
59307;DHT22;47983;53.016;-2.260;2023-03-17T03:36:08;8.90;99.90
59307;DHT22;47983;53.016;-2.260;2023-03-17T03:38:36;8.80;99.90
59307;DHT22;47983;53.016;-2.260;2023-03-17T03:41:04;8.80;99.90
59307;DHT22;47983;53.016;-2.260;2023-03-17T03:43:32;8.80;99.90
59307;DHT22;47983;53.016;-2.260;2023-03-17T03:46:03;8.70;99.90
59307;DHT22;47983;53.016;-2.260;2023-03-17T03:48:31;8.70;99.90
59307;DHT22;47983;53.016;-2.260;2023-03-17T03:51:00;8.70;99.90
59307;DHT22;47983;53.016;-2.260;2023-03-17T03:53:28;8.70;99.90
59307;DHT22;47983;53.016;-2.260;2023-03-17T03:55:56;8.60;99.90
59307;DHT22;47983;53.016;-2.260;2023-03-17T03:58:23;8.60;99.90
59307;DHT22;47983;53.016;-2.260;2023-03-17T04:00:51;8.60;99.90
59307;DHT22;47983;53.016;-2.260;2023-03-17T04:03:19;8.60;99.90
59307;DHT22;47983;53.016;-2.260;2023-03-17T04:05:47;8.60;99.90
59307;DHT22;47983;53.016;-2.260;2023-03-17T04:08:14;8.60;99.90
59307;DHT22;47983;53.016;-2.260;2023-03-17T04:10:42;8.60;99.90
59307;DHT22;47983;53.016;-2.260;2023-03-17T04:13:10;8.70;99.90
59307;DHT22;47983;53.016;-2.260;2023-03-17T04:15:40;8.70;99.90
59307;DHT22;47983;53.016;-2.260;2023-03-17T04:18:08;8.70;99.90
59307;DHT22;47983;53.016;-2.260;2023-03-17T04:20:36;8.70;99.90
59307;DHT22;47983;53.016;-2.260;2023-03-17T04:23:05;8.80;99.90
59307;DHT22;47983;53.016;-2.260;2023-03-17T04:25:33;8.80;99.90
59307;DHT22;47983;53.016;-2.260;2023-03-17T04:28:00;8.80;99.90
59307;DHT22;47983;53.016;-2.260;2023-03-17T04:30:28;8.90;99.90
59307;DHT22;47983;53.016;-2.260;2023-03-17T04:32:56;8.80;99.90
59307;DHT22;47983;53.016;-2.260;2023-03-17T04:35:23;8.80;99.90
59307;DHT22;47983;53.016;-2.260;2023-03-17T04:37:51;8.80;99.90
59307;DHT22;47983;53.016;-2.260;2023-03-17T04:40:19;8.80;99.90
59307;DHT22;47983;53.016;-2.260;2023-03-17T04:42:47;8.80;99.90
59307;DHT22;47983;53.016;-2.260;2023-03-17T04:45:14;8.80;99.90
59307;DHT22;47983;53.016;-2.260;2023-03-17T04:47:43;8.80;99.90
59307;DHT22;47983;53.016;-2.260;2023-03-17T04:50:13;8.80;99.90
59307;DHT22;47983;53.016;-2.260;2023-03-17T04:52:41;8.70;99.90
59307;DHT22;47983;53.016;-2.260;2023-03-17T04:55:09;8.70;99.90
59307;DHT22;47983;53.016;-2.260;2023-03-17T04:57:38;8.70;99.90
59307;DHT22;47983;53.016;-2.260;2023-03-17T05:00:06;8.70;99.90
59307;DHT22;47983;53.016;-2.260;2023-03-17T05:02:34;8.70;99.90
59307;DHT22;47983;53.016;-2.260;2023-03-17T05:05:05;8.60;99.90
59307;DHT22;47983;53.016;-2.260;2023-03-17T05:07:33;8.60;99.90
59307;DHT22;47983;53.016;-2.260;2023-03-17T05:10:00;8.70;99.90
59307;DHT22;47983;53.016;-2.260;2023-03-17T05:14:56;8.60;99.90
59307;DHT22;47983;53.016;-2.260;2023-03-17T05:17:24;8.60;99.90
59307;DHT22;47983;53.016;-2.260;2023-03-17T05:19:52;8.60;99.90
59307;DHT22;47983;53.016;-2.260;2023-03-17T05:22:20;8.60;99.90
59307;DHT22;47983;53.016;-2.260;2023-03-17T05:24:47;6.50;99.90
59307;DHT22;47983;53.016;-2.260;2023-03-17T05:27:15;8.60;99.90
59307;DHT22;47983;53.016;-2.260;2023-03-17T05:29:42;8.70;99.90
59307;DHT22;47983;53.016;-2.260;2023-03-17T05:32:10;8.70;99.90
59307;DHT22;47983;53.016;-2.260;2023-03-17T05:34:38;8.70;99.90
59307;DHT22;47983;53.016;-2.260;2023-03-17T05:37:06;8.70;99.90
59307;DHT22;47983;53.016;-2.260;2023-03-17T05:39:34;8.70;99.90
59307;DHT22;47983;53.016;-2.260;2023-03-17T05:42:05;8.70;99.90
59307;DHT22;47983;53.016;-2.260;2023-03-17T05:44:33;8.70;99.90
59307;DHT22;47983;53.016;-2.260;2023-03-17T05:47:01;8.80;99.90
59307;DHT22;47983;53.016;-2.260;2023-03-17T05:49:33;8.70;99.90
59307;DHT22;47983;53.016;-2.260;2023-03-17T05:52:02;8.70;99.90
59307;DHT22;47983;53.016;-2.260;2023-03-17T05:54:32;8.60;99.90
59307;DHT22;47983;53.016;-2.260;2023-03-17T05:57:01;8.60;99.90
59307;DHT22;47983;53.016;-2.260;2023-03-17T06:01:58;8.50;99.90
59307;DHT22;47983;53.016;-2.260;2023-03-17T06:04:25;8.60;99.90
59307;DHT22;47983;53.016;-2.260;2023-03-17T06:06:55;8.50;99.90
59307;DHT22;47983;53.016;-2.260;2023-03-17T06:09:23;8.50;99.90
59307;DHT22;47983;53.016;-2.260;2023-03-17T06:11:51;8.50;99.90
59307;DHT22;47983;53.016;-2.260;2023-03-17T06:14:19;8.50;99.90
59307;DHT22;47983;53.016;-2.260;2023-03-17T06:16:46;8.50;99.90
59307;DHT22;47983;53.016;-2.260;2023-03-17T06:19:14;8.60;99.90
59307;DHT22;47983;53.016;-2.260;2023-03-17T06:21:42;8.60;99.90
59307;DHT22;47983;53.016;-2.260;2023-03-17T06:24:10;8.60;99.90
59307;DHT22;47983;53.016;-2.260;2023-03-17T06:26:38;8.60;99.90
59307;DHT22;47983;53.016;-2.260;2023-03-17T06:29:06;8.70;99.90
59307;DHT22;47983;53.016;-2.260;2023-03-17T06:31:38;8.70;99.90
59307;DHT22;47983;53.016;-2.260;2023-03-17T06:36:34;8.70;99.90
59307;DHT22;47983;53.016;-2.260;2023-03-17T06:41:36;8.70;99.90
59307;DHT22;47983;53.016;-2.260;2023-03-17T06:44:04;8.70;99.90
59307;DHT22;47983;53.016;-2.260;2023-03-17T06:46:32;8.60;99.90
59307;DHT22;47983;53.016;-2.260;2023-03-17T06:49:00;8.60;99.90
59307;DHT22;47983;53.016;-2.260;2023-03-17T06:51:28;8.60;99.90
59307;DHT22;47983;53.016;-2.260;2023-03-17T06:53:57;8.60;99.90
59307;DHT22;47983;53.016;-2.260;2023-03-17T06:56:24;8.70;99.90
59307;DHT22;47983;53.016;-2.260;2023-03-17T06:58:57;8.50;99.90
59307;DHT22;47983;53.016;-2.260;2023-03-17T07:01:28;8.70;99.90
59307;DHT22;47983;53.016;-2.260;2023-03-17T07:03:56;8.70;99.90
59307;DHT22;47983;53.016;-2.260;2023-03-17T07:06:25;8.70;99.90
59307;DHT22;47983;53.016;-2.260;2023-03-17T07:08:53;8.70;99.90
59307;DHT22;47983;53.016;-2.260;2023-03-17T07:11:20;8.80;99.90
59307;DHT22;47983;53.016;-2.260;2023-03-17T07:13:50;8.80;99.90
59307;DHT22;47983;53.016;-2.260;2023-03-17T07:16:18;8.90;99.90
59307;DHT22;47983;53.016;-2.260;2023-03-17T07:18:47;8.90;99.90
59307;DHT22;47983;53.016;-2.260;2023-03-17T07:21:15;8.90;99.90
59307;DHT22;47983;53.016;-2.260;2023-03-17T07:23:43;9.00;99.90
59307;DHT22;47983;53.016;-2.260;2023-03-17T07:26:10;9.00;99.90
59307;DHT22;47983;53.016;-2.260;2023-03-17T07:28:38;9.10;99.90
59307;DHT22;47983;53.016;-2.260;2023-03-17T07:31:06;9.00;99.90
59307;DHT22;47983;53.016;-2.260;2023-03-17T07:33:36;9.10;99.90
59307;DHT22;47983;53.016;-2.260;2023-03-17T07:36:07;9.20;99.90
59307;DHT22;47983;53.016;-2.260;2023-03-17T07:38:35;9.20;99.90
59307;DHT22;47983;53.016;-2.260;2023-03-17T07:41:06;9.30;99.90
59307;DHT22;47983;53.016;-2.260;2023-03-17T07:43:37;9.30;99.90
59307;DHT22;47983;53.016;-2.260;2023-03-17T07:46:04;9.40;99.90
59307;DHT22;47983;53.016;-2.260;2023-03-17T07:48:33;9.40;99.90
59307;DHT22;47983;53.016;-2.260;2023-03-17T07:51:04;9.40;99.90
59307;DHT22;47983;53.016;-2.260;2023-03-17T07:53:31;9.40;99.90
59307;DHT22;47983;53.016;-2.260;2023-03-17T07:56:01;9.40;99.90
59307;DHT22;47983;53.016;-2.260;2023-03-17T07:58:28;9.50;99.90
59307;DHT22;47983;53.016;-2.260;2023-03-17T08:00:56;9.50;99.90
59307;DHT22;47983;53.016;-2.260;2023-03-17T08:03:24;9.60;99.90
59307;DHT22;47983;53.016;-2.260;2023-03-17T08:05:53;9.60;99.90
59307;DHT22;47983;53.016;-2.260;2023-03-17T08:08:24;9.60;99.90
59307;DHT22;47983;53.016;-2.260;2023-03-17T08:13:21;9.60;99.90
59307;DHT22;47983;53.016;-2.260;2023-03-17T08:15:51;9.60;99.90
59307;DHT22;47983;53.016;-2.260;2023-03-17T08:18:20;9.60;99.90
59307;DHT22;47983;53.016;-2.260;2023-03-17T08:20:48;9.60;99.90
59307;DHT22;47983;53.016;-2.260;2023-03-17T08:23:17;9.60;99.90
59307;DHT22;47983;53.016;-2.260;2023-03-17T08:25:45;9.70;99.90
59307;DHT22;47983;53.016;-2.260;2023-03-17T08:28:14;9.80;99.90
59307;DHT22;47983;53.016;-2.260;2023-03-17T08:30:43;9.80;99.90
59307;DHT22;47983;53.016;-2.260;2023-03-17T08:33:11;9.80;99.90
59307;DHT22;47983;53.016;-2.260;2023-03-17T08:35:40;9.80;99.90
59307;DHT22;47983;53.016;-2.260;2023-03-17T08:38:08;9.80;99.90
59307;DHT22;47983;53.016;-2.260;2023-03-17T08:40:37;9.90;99.90
59307;DHT22;47983;53.016;-2.260;2023-03-17T08:43:06;9.90;99.90
59307;DHT22;47983;53.016;-2.260;2023-03-17T08:45:34;10.00;99.90
59307;DHT22;47983;53.016;-2.260;2023-03-17T08:48:01;10.00;99.90
59307;DHT22;47983;53.016;-2.260;2023-03-17T08:50:29;10.10;99.90
59307;DHT22;47983;53.016;-2.260;2023-03-17T08:52:58;10.10;99.90
59307;DHT22;47983;53.016;-2.260;2023-03-17T08:55:26;10.20;99.90
59307;DHT22;47983;53.016;-2.260;2023-03-17T08:57:53;10.20;99.90
59307;DHT22;47983;53.016;-2.260;2023-03-17T09:00:22;10.20;99.90
59307;DHT22;47983;53.016;-2.260;2023-03-17T09:02:49;10.30;99.90
59307;DHT22;47983;53.016;-2.260;2023-03-17T09:05:17;10.30;99.90
59307;DHT22;47983;53.016;-2.260;2023-03-17T09:07:45;10.30;99.90
59307;DHT22;47983;53.016;-2.260;2023-03-17T09:10:15;10.40;99.90
59307;DHT22;47983;53.016;-2.260;2023-03-17T09:12:48;10.40;99.90
59307;DHT22;47983;53.016;-2.260;2023-03-17T09:15:20;10.40;99.90
59307;DHT22;47983;53.016;-2.260;2023-03-17T09:17:48;10.30;99.90
59307;DHT22;47983;53.016;-2.260;2023-03-17T09:20:16;10.30;99.90
59307;DHT22;47983;53.016;-2.260;2023-03-17T09:22:43;10.30;99.90
59307;DHT22;47983;53.016;-2.260;2023-03-17T09:25:11;10.30;99.90
59307;DHT22;47983;53.016;-2.260;2023-03-17T09:27:38;10.40;99.90
59307;DHT22;47983;53.016;-2.260;2023-03-17T09:30:07;10.40;99.90
59307;DHT22;47983;53.016;-2.260;2023-03-17T09:32:40;10.50;99.90
59307;DHT22;47983;53.016;-2.260;2023-03-17T09:35:08;10.50;99.90
59307;DHT22;47983;53.016;-2.260;2023-03-17T09:40:05;10.70;99.90
59307;DHT22;47983;53.016;-2.260;2023-03-17T09:45:31;10.90;99.90
59307;DHT22;47983;53.016;-2.260;2023-03-17T09:48:33;10.80;99.90
59307;DHT22;47983;53.016;-2.260;2023-03-17T09:51:06;11.00;99.90
59307;DHT22;47983;53.016;-2.260;2023-03-17T09:56:15;11.10;99.90
59307;DHT22;47983;53.016;-2.260;2023-03-17T10:01:36;11.20;99.90
59307;DHT22;47983;53.016;-2.260;2023-03-17T10:04:09;11.40;99.90
59307;DHT22;47983;53.016;-2.260;2023-03-17T10:06:43;11.40;99.90
59307;DHT22;47983;53.016;-2.260;2023-03-17T10:09:22;11.50;99.90
59307;DHT22;47983;53.016;-2.260;2023-03-17T10:12:09;11.70;99.90
59307;DHT22;47983;53.016;-2.260;2023-03-17T10:15:03;11.90;99.90
59307;DHT22;47983;53.016;-2.260;2023-03-17T10:17:39;12.10;99.90
59307;DHT22;47983;53.016;-2.260;2023-03-17T10:22:47;12.20;99.90
59307;DHT22;47983;53.016;-2.260;2023-03-17T10:25:22;12.20;99.90
59307;DHT22;47983;53.016;-2.260;2023-03-17T10:30:23;12.20;99.90
59307;DHT22;47983;53.016;-2.260;2023-03-17T10:32:51;12.10;99.90
59307;DHT22;47983;53.016;-2.260;2023-03-17T10:35:22;12.10;99.90
59307;DHT22;47983;53.016;-2.260;2023-03-17T10:37:50;12.20;99.90
59307;DHT22;47983;53.016;-2.260;2023-03-17T10:40:38;12.20;99.90
59307;DHT22;47983;53.016;-2.260;2023-03-17T10:43:10;12.30;99.90
59307;DHT22;47983;53.016;-2.260;2023-03-17T10:45:53;12.50;99.90
59307;DHT22;47983;53.016;-2.260;2023-03-17T10:48:22;12.70;99.90
59307;DHT22;47983;53.016;-2.260;2023-03-17T10:50:51;12.90;99.90
59307;DHT22;47983;53.016;-2.260;2023-03-17T10:53:22;13.10;99.90
59307;DHT22;47983;53.016;-2.260;2023-03-17T10:56:07;13.20;99.90
59307;DHT22;47983;53.016;-2.260;2023-03-17T11:01:27;13.30;99.90
59307;DHT22;47983;53.016;-2.260;2023-03-17T11:03:55;13.30;99.90
59307;DHT22;47983;53.016;-2.260;2023-03-17T11:06:33;13.20;99.90
59307;DHT22;47983;53.016;-2.260;2023-03-17T11:09:09;13.10;99.90
59307;DHT22;47983;53.016;-2.260;2023-03-17T11:11:45;13.20;99.90
59307;DHT22;47983;53.016;-2.260;2023-03-17T11:14:17;13.20;99.90
59307;DHT22;47983;53.016;-2.260;2023-03-17T11:19:16;13.30;99.90
59307;DHT22;47983;53.016;-2.260;2023-03-17T11:22:09;13.30;99.90
59307;DHT22;47983;53.016;-2.260;2023-03-17T11:27:36;13.60;99.90
59307;DHT22;47983;53.016;-2.260;2023-03-17T11:30:18;13.60;99.90
59307;DHT22;47983;53.016;-2.260;2023-03-17T11:33:23;13.70;99.90
59307;DHT22;47983;53.016;-2.260;2023-03-17T11:36:12;13.70;99.90
59307;DHT22;47983;53.016;-2.260;2023-03-17T11:38:57;13.60;99.90
59307;DHT22;47983;53.016;-2.260;2023-03-17T11:41:34;13.60;99.90
59307;DHT22;47983;53.016;-2.260;2023-03-17T11:45:09;13.60;99.90
59307;DHT22;47983;53.016;-2.260;2023-03-17T11:59:04;13.90;99.90
59307;DHT22;47983;53.016;-2.260;2023-03-17T12:01:46;13.80;99.90
59307;DHT22;47983;53.016;-2.260;2023-03-17T12:04:22;13.70;99.90
59307;DHT22;47983;53.016;-2.260;2023-03-17T12:06:58;13.70;99.90
59307;DHT22;47983;53.016;-2.260;2023-03-17T12:12:29;13.70;99.90
59307;DHT22;47983;53.016;-2.260;2023-03-17T12:14:59;13.60;99.90
59307;DHT22;47983;53.016;-2.260;2023-03-17T12:17:38;13.60;99.90
59307;DHT22;47983;53.016;-2.260;2023-03-17T12:20:25;13.50;99.90
59307;DHT22;47983;53.016;-2.260;2023-03-17T12:23:15;13.50;99.90
59307;DHT22;47983;53.016;-2.260;2023-03-17T12:25:55;13.50;99.90
59307;DHT22;47983;53.016;-2.260;2023-03-17T12:28:48;13.50;99.90
59307;DHT22;47983;53.016;-2.260;2023-03-17T12:31:31;13.50;99.90
59307;DHT22;47983;53.016;-2.260;2023-03-17T12:34:19;13.50;99.90
59307;DHT22;47983;53.016;-2.260;2023-03-17T12:36:48;13.60;99.90
59307;DHT22;47983;53.016;-2.260;2023-03-17T12:39:25;13.60;99.90
59307;DHT22;47983;53.016;-2.260;2023-03-17T12:44:49;13.60;99.90
59307;DHT22;47983;53.016;-2.260;2023-03-17T12:47:33;13.80;99.90
59307;DHT22;47983;53.016;-2.260;2023-03-17T12:55:45;16.00;99.90
59307;DHT22;47983;53.016;-2.260;2023-03-17T12:58:36;16.50;99.90
59307;DHT22;47983;53.016;-2.260;2023-03-17T13:01:28;16.70;99.90
59307;DHT22;47983;53.016;-2.260;2023-03-17T13:04:21;16.40;99.90
59307;DHT22;47983;53.016;-2.260;2023-03-17T13:06:58;16.40;99.90
59307;DHT22;47983;53.016;-2.260;2023-03-17T13:12:32;16.80;99.90
59307;DHT22;47983;53.016;-2.260;2023-03-17T13:14:57;17.10;99.90
59307;DHT22;47983;53.016;-2.260;2023-03-17T13:17:31;17.70;99.90
59307;DHT22;47983;53.016;-2.260;2023-03-17T13:20:13;17.60;99.90
59307;DHT22;47983;53.016;-2.260;2023-03-17T13:25:34;18.10;99.90
59307;DHT22;47983;53.016;-2.260;2023-03-17T13:38:51;16.30;99.90
59307;DHT22;47983;53.016;-2.260;2023-03-17T13:42:07;15.80;99.90
59307;DHT22;47983;53.016;-2.260;2023-03-17T13:45:07;15.20;99.90
59307;DHT22;47983;53.016;-2.260;2023-03-17T13:47:46;15.10;99.90
59307;DHT22;47983;53.016;-2.260;2023-03-17T13:50:30;14.90;99.90
59307;DHT22;47983;53.016;-2.260;2023-03-17T13:53:05;14.90;99.90
59307;DHT22;47983;53.016;-2.260;2023-03-17T13:55:38;15.10;99.90
59307;DHT22;47983;53.016;-2.260;2023-03-17T14:00:40;16.20;99.90
59307;DHT22;47983;53.016;-2.260;2023-03-17T14:03:27;16.20;99.90
59307;DHT22;47983;53.016;-2.260;2023-03-17T14:05:56;16.50;99.90
59307;DHT22;47983;53.016;-2.260;2023-03-17T14:08:36;16.60;99.90
59307;DHT22;47983;53.016;-2.260;2023-03-17T14:16:35;16.20;99.90
59307;DHT22;47983;53.016;-2.260;2023-03-17T14:19:31;15.80;99.90
59307;DHT22;47983;53.016;-2.260;2023-03-17T14:22:17;15.70;99.90
59307;DHT22;47983;53.016;-2.260;2023-03-17T14:24:50;15.50;99.90
59307;DHT22;47983;53.016;-2.260;2023-03-17T14:27:18;15.30;99.90
59307;DHT22;47983;53.016;-2.260;2023-03-17T14:29:46;15.90;99.90
59307;DHT22;47983;53.016;-2.260;2023-03-17T14:32:17;14.80;99.90
59307;DHT22;47983;53.016;-2.260;2023-03-17T14:34:50;14.70;99.90
59307;DHT22;47983;53.016;-2.260;2023-03-17T14:37:22;14.40;99.90
59307;DHT22;47983;53.016;-2.260;2023-03-17T14:39:53;14.10;99.90
59307;DHT22;47983;53.016;-2.260;2023-03-17T14:42:29;13.80;99.90
59307;DHT22;47983;53.016;-2.260;2023-03-17T14:45:05;13.60;99.90
59307;DHT22;47983;53.016;-2.260;2023-03-17T14:47:37;13.40;99.90
59307;DHT22;47983;53.016;-2.260;2023-03-17T14:50:16;13.30;99.90
59307;DHT22;47983;53.016;-2.260;2023-03-17T14:52:44;13.10;99.90
59307;DHT22;47983;53.016;-2.260;2023-03-17T14:55:13;13.00;99.90
59307;DHT22;47983;53.016;-2.260;2023-03-17T14:57:48;12.80;99.90
59307;DHT22;47983;53.016;-2.260;2023-03-17T15:00:34;12.80;99.90
59307;DHT22;47983;53.016;-2.260;2023-03-17T15:03:15;12.60;99.90
59307;DHT22;47983;53.016;-2.260;2023-03-17T15:05:44;12.60;99.90
59307;DHT22;47983;53.016;-2.260;2023-03-17T15:11:06;12.70;99.90
59307;DHT22;47983;53.016;-2.260;2023-03-17T15:13:36;13.00;99.90
59307;DHT22;47983;53.016;-2.260;2023-03-17T15:16:26;13.00;99.90
59307;DHT22;47983;53.016;-2.260;2023-03-17T15:19:23;13.20;99.90
59307;DHT22;47983;53.016;-2.260;2023-03-17T15:21:55;16.50;99.90
59307;DHT22;47983;53.016;-2.260;2023-03-17T15:27:15;13.40;99.90
59307;DHT22;47983;53.016;-2.260;2023-03-17T15:29:44;13.40;99.90
59307;DHT22;47983;53.016;-2.260;2023-03-17T15:32:17;13.50;99.90
59307;DHT22;47983;53.016;-2.260;2023-03-17T15:34:50;13.50;99.90
59307;DHT22;47983;53.016;-2.260;2023-03-17T15:37:26;13.50;99.90
59307;DHT22;47983;53.016;-2.260;2023-03-17T15:39:54;13.40;99.90
59307;DHT22;47983;53.016;-2.260;2023-03-17T15:42:25;13.40;99.90
59307;DHT22;47983;53.016;-2.260;2023-03-17T15:44:53;13.30;99.90
59307;DHT22;47983;53.016;-2.260;2023-03-17T15:47:25;13.30;99.90
59307;DHT22;47983;53.016;-2.260;2023-03-17T15:50:10;13.30;99.90
59307;DHT22;47983;53.016;-2.260;2023-03-17T15:52:40;13.30;99.90
59307;DHT22;47983;53.016;-2.260;2023-03-17T15:55:15;13.30;99.90
59307;DHT22;47983;53.016;-2.260;2023-03-17T15:57:43;13.40;99.90
59307;DHT22;47983;53.016;-2.260;2023-03-17T16:00:23;13.40;99.90
59307;DHT22;47983;53.016;-2.260;2023-03-17T16:02:51;13.40;99.90
59307;DHT22;47983;53.016;-2.260;2023-03-17T16:05:26;13.30;99.90
59307;DHT22;47983;53.016;-2.260;2023-03-17T16:07:54;13.40;99.90
59307;DHT22;47983;53.016;-2.260;2023-03-17T16:10:24;13.30;99.90
59307;DHT22;47983;53.016;-2.260;2023-03-17T16:12:52;13.30;99.90
59307;DHT22;47983;53.016;-2.260;2023-03-17T16:15:31;13.30;99.90
59307;DHT22;47983;53.016;-2.260;2023-03-17T16:18:01;13.30;99.90
59307;DHT22;47983;53.016;-2.260;2023-03-17T16:20:42;13.40;99.90
59307;DHT22;47983;53.016;-2.260;2023-03-17T16:23:21;17.10;99.90
59307;DHT22;47983;53.016;-2.260;2023-03-17T16:25:49;13.30;99.90
59307;DHT22;47983;53.016;-2.260;2023-03-17T16:28:21;13.30;99.90
59307;DHT22;47983;53.016;-2.260;2023-03-17T16:30:51;13.30;99.90
59307;DHT22;47983;53.016;-2.260;2023-03-17T16:33:28;13.20;99.90
59307;DHT22;47983;53.016;-2.260;2023-03-17T16:35:59;13.20;99.90
59307;DHT22;47983;53.016;-2.260;2023-03-17T16:38:32;13.10;99.90
59307;DHT22;47983;53.016;-2.260;2023-03-17T16:41:06;13.10;99.90
59307;DHT22;47983;53.016;-2.260;2023-03-17T16:43:36;13.20;99.90
59307;DHT22;47983;53.016;-2.260;2023-03-17T16:46:05;13.10;99.90
59307;DHT22;47983;53.016;-2.260;2023-03-17T16:48:36;13.20;99.90
59307;DHT22;47983;53.016;-2.260;2023-03-17T16:51:05;13.20;99.90
59307;DHT22;47983;53.016;-2.260;2023-03-17T16:53:33;13.30;99.90
59307;DHT22;47983;53.016;-2.260;2023-03-17T16:56:01;13.30;99.90
59307;DHT22;47983;53.016;-2.260;2023-03-17T16:58:34;13.30;99.90
59307;DHT22;47983;53.016;-2.260;2023-03-17T17:01:10;13.20;99.90
59307;DHT22;47983;53.016;-2.260;2023-03-17T17:03:39;13.20;99.90
59307;DHT22;47983;53.016;-2.260;2023-03-17T17:06:08;13.20;99.90
59307;DHT22;47983;53.016;-2.260;2023-03-17T17:08:36;11.60;99.90
59307;DHT22;47983;53.016;-2.260;2023-03-17T17:11:04;13.20;99.90
59307;DHT22;47983;53.016;-2.260;2023-03-17T17:13:32;13.20;99.90
59307;DHT22;47983;53.016;-2.260;2023-03-17T17:16:04;13.20;99.90
59307;DHT22;47983;53.016;-2.260;2023-03-17T17:18:32;13.20;99.90
59307;DHT22;47983;53.016;-2.260;2023-03-17T17:21:04;13.10;99.90
59307;DHT22;47983;53.016;-2.260;2023-03-17T17:26:01;13.00;99.90
59307;DHT22;47983;53.016;-2.260;2023-03-17T17:28:29;13.00;99.90